Latest Coastal Weather Observations for Cape Leeuwin

IDW60701

Issued at 8:22 am WST Thursday 29 January 2015 (issued every 10 minutes, with the page automatically refreshed every 10 minutes)

About coastal observations | Map of coastal stations | Coastal observations for WA | Marine services | Other Formats
Station Details ID: 009518 Name: CAPE LEEUWIN Lat: -34.37 Lon: 115.14 Height: 13.0 m
Data from the previous 72 hours. | See also: Recent months at Cape Leeuwin
Date/Time
WST
Temp

°C
Wind Pressure Rain
since 9am
mm
Weather Cloud Vis
km
Sea
Height
m
Swell
Dir
 
Speed
knots
Gust
knots
hPa Trend Height
m
Period
s
Dir
29/08:00am 20.5 SSE 14 18 1012.7 - 0.0 - - - - - - -
29/07:30am 20.4 S 14 17 1012.3 - 0.0 - - - - - - -
29/07:00am 20.1 S 16 20 1011.9 - 0.0 - - - - - - -
29/06:30am 20.0 SSE 14 19 1011.6 - 0.0 - - - - - - -
29/06:00am 20.1 S 13 17 1011.4 - 0.0 - - - - - - -
29/05:30am 20.0 S 14 18 1011.1 - 0.0 - - - - - - -
29/05:00am 19.9 S 14 19 1010.7 - 0.0 - - - - - - -
29/04:30am 20.0 S 13 17 1010.2 - 0.0 - - - - - - -
29/04:00am 20.0 S 12 16 1009.6 - 0.0 - - - - - - -
29/03:30am 20.2 S 11 15 1009.3 - 0.0 - - - - - - -
29/03:00am 20.3 SSW 11 15 1009.2 - 0.0 - - - - - - -
29/02:30am 20.1 SSW 10 13 1009.0 - 0.0 - - - - - - -
29/02:00am 20.0 S 11 13 1008.9 - 0.0 - - - - - - -
29/01:30am 20.0 S 13 17 1008.8 - 0.0 - - - - - - -
29/01:00am 20.2 S 14 19 1009.0 - 0.0 - - - - - - -
29/12:30am 20.4 SSW 15 21 1009.1 - 0.0 - - - - - - -
29/12:00am 20.6 SW 12 15 1009.1 - 0.0 - - - - - - -
 
Date/Time
WST
Temp

°C
Wind Pressure Rain
since 9am
mm
Weather Cloud Vis
km
Sea
Height
m
Swell
Dir
 
Speed
knots
Gust
knots
hPa Trend Height
m
Period
s
Dir
28/11:30pm 20.6 SW 7 9 1008.8 - 0.0 - - - - - - -
28/11:00pm 20.7 SW 5 6 1008.4 - 0.0 - - - - - - -
28/10:30pm 21.0 WSW 6 8 1008.4 - 0.0 - - - - - - -
28/10:00pm 21.2 WSW 7 8 1008.4 - 0.0 - - - - - - -
28/09:30pm 21.4 WSW 6 7 1008.4 - 0.0 - - - - - - -
28/09:00pm 21.6 W 6 8 1008.2 - 0.0 - - - - - - -
28/08:30pm 21.8 WNW 3 4 1007.8 - 0.0 - - - - - - -
28/08:00pm 21.9 WSW 3 4 1007.6 - 0.0 - - - - - - -
28/07:30pm 22.1 SSW 4 6 1007.6 - 0.0 - - - - - - -
28/07:00pm 23.0 SW 7 9 1007.7 - 0.0 - - - - - - -
28/06:30pm 23.5 S 6 8 1008.0 - 0.0 - - - - - - -
28/06:00pm 23.6 SE 10 13 1008.4 - 0.0 - - - - - - -
28/05:30pm 24.4 S 8 11 1007.5 - 0.0 - - - - - - -
28/05:00pm 24.6 SW 9 12 1006.8 - 0.0 - - - - - - -
28/04:30pm 25.7 SW 9 12 1006.9 - 0.0 - - - - - - -
28/04:00pm 26.2 WSW 11 14 1006.9 - 0.0 - - - - - - -
28/03:30pm 25.9 WSW 11 13 1006.9 - 0.0 - - - - - - -
28/03:00pm 26.6 WNW 8 11 1007.0 - 0.0 - - - - - - -
28/02:30pm 25.6 WNW 7 7 1007.1 - 0.0 - - - - - - -
28/02:00pm 27.9 SW 6 8 1007.2 - 0.0 - - - - - - -
28/01:30pm 27.6 SW 5 7 1007.5 - 0.0 - - - - - - -
28/01:00pm 26.6 SSE 6 7 1007.7 - 0.0 - - - - - - -
28/12:30pm 25.8 SE 6 8 1007.8 - 0.0 - - - - - - -
28/12:00pm 25.6 SE 6 7 1007.9 - 0.0 - - - - - - -
28/11:30am 24.1 SE 6 8 1008.1 - 0.0 - - - - - - -
28/11:00am 24.3 SE 7 9 1008.2 - 0.0 - - - - - - -
28/10:30am 24.7 SE 7 9 1008.2 - 0.0 - - - - - - -
28/10:00am 23.3 ESE 9 11 1008.1 - 0.0 - - - - - - -
28/09:30am 24.2 ESE 9 11 1008.0 - 0.0 - - - - - - -
28/09:00am 24.2 ESE 8 9 1008.1 - 0.0 - - - - - - -
28/08:30am 23.6 ESE 10 13 1008.0 - 0.0 - - - - - - -
28/08:00am 22.8 ESE 10 11 1008.0 - 0.0 - - - - - - -
28/07:30am 23.8 E 11 16 1007.9 - 0.0 - - - - - - -
28/07:28am 24.1 E 12 17 1007.9 - 0.0 - - - - - - -
28/07:00am 23.2 ENE 20 22 1007.3 - 0.0 - - - - - - -
28/06:30am 22.4 ENE 22 24 1007.0 - 0.0 - - - - - - -
28/06:00am 22.1 ENE 21 23 1006.8 - 0.0 - - - - - - -
28/05:30am 21.8 ENE 16 17 1007.1 - 0.0 - - - - - - -
28/05:00am 22.0 ENE 18 20 1006.9 - 0.0 - - - - - - -
28/04:30am 22.2 ENE 18 20 1006.7 - 0.0 - - - - - - -
28/04:00am 22.5 ENE 16 18 1006.8 - 0.0 - - - - - - -
28/03:30am 22.7 ENE 17 18 1006.8 - 0.0 - - - - - - -
28/03:00am 23.0 ENE 16 17 1006.9 - 0.0 - - - - - - -
28/02:30am 22.7 E 15 16 1007.1 - 0.0 - - - - - - -
28/02:00am 23.3 ENE 14 16 1007.3 - 0.0 - - - - - - -
28/01:30am 24.6 ENE 16 21 1007.5 - 0.0 - - - - - - -
28/01:00am 23.7 ENE 16 19 1007.6 - 0.0 - - - - - - -
28/12:30am 23.8 ENE 14 15 1007.7 - 0.0 - - - - - - -
28/12:00am 22.7 E 12 14 1007.9 - 0.0 - - - - - - -
 
Date/Time
WST
Temp

°C
Wind Pressure Rain
since 9am
mm
Weather Cloud Vis
km
Sea
Height
m
Swell
Dir
 
Speed
knots
Gust
knots
hPa Trend Height
m
Period
s
Dir
27/11:30pm 22.1 E 13 15 1008.0 - 0.0 - - - - - - -
27/11:00pm 21.9 E 12 13 1008.3 - 0.0 - - - - - - -
27/10:30pm 21.7 E 11 14 1008.6 - 0.0 - - - - - - -
27/10:00pm 21.8 E 12 14 1008.5 - 0.0 - - - - - - -
27/09:30pm 21.7 E 11 12 1008.7 - 0.0 - - - - - - -
27/09:00pm 21.9 E 12 14 1008.6 - 0.0 - - - - - - -
27/08:30pm 22.1 E 11 15 1008.7 - 0.0 - - - - - - -
27/08:00pm 22.0 E 7 8 1008.6 - 0.0 - - - - - - -
27/07:30pm 21.9 ESE 8 10 1008.6 - 0.0 - - - - - - -
27/07:00pm 21.9 ESE 7 9 1008.6 - 0.0 - - - - - - -
27/06:30pm 22.5 SE 7 9 1008.6 - 0.0 - - - - - - -
27/06:00pm 23.1 SSE 6 7 1008.7 - 0.0 - - - - - - -
27/05:30pm 23.4 SSW 7 10 1008.8 - 0.0 - - - - - - -
27/05:00pm 23.3 ESE 8 11 1008.6 - 0.0 - - - - - - -
27/04:30pm 23.2 ESE 10 12 1008.5 - 0.0 - - - - - - -
27/04:00pm 23.5 ESE 9 11 1008.6 - 0.0 - - - - - - -
27/03:30pm 24.1 SE 9 12 1009.0 - 0.0 - - - - - - -
27/03:00pm 23.9 SE 10 12 1009.1 - 0.0 - - - - - - -
27/02:30pm 24.1 SE 12 15 1009.0 - 0.0 - - - - - - -
27/02:00pm 23.7 SE 11 14 1009.3 - 0.0 - - - - - - -
27/01:30pm 24.8 SE 12 14 1009.5 - 0.0 - - - - - - -
27/01:00pm 23.7 SE 12 15 1009.6 - 0.0 - - - - - - -
27/12:30pm 24.2 SE 11 14 1009.9 - 0.0 - - - - - - -
27/12:00pm 24.0 SE 11 13 1010.2 - 0.0 - - - - - - -
27/11:30am 24.0 SE 11 14 1010.4 - 0.0 - - - - - - -
27/11:00am 23.9 SE 11 15 1010.7 - 0.0 - - - - - - -
27/10:30am 23.2 SSE 10 13 1011.0 - 0.0 - - - - - - -
27/10:00am 22.7 SE 11 13 1010.9 - 0.0 - - - - - - -
27/09:30am 22.2 ESE 10 13 1010.9 - 0.0 - - - - - - -
27/09:00am 21.2 ESE 10 12 1010.9 - 0.0 - - - - - - -
27/08:30am 21.0 ESE 10 12 1011.0 - 0.0 - - - - - - -
27/08:00am 20.8 E 11 14 1010.9 - 0.0 - - - - - - -
27/07:30am 20.8 ESE 9 12 1010.9 - 0.0 - - - - - - -
27/07:03am 19.9 NE 17 25 1010.6 - 0.0 - - - - - - -
27/07:00am 19.7 NE 21 27 1010.2 - 0.0 - - - - - - -
27/06:30am 19.1 NE 23 26 1009.8 - 0.0 - - - - - - -
27/06:00am 18.3 ENE 21 25 1009.8 - 0.0 - - - - - - -
27/05:30am 18.0 ENE 22 25 1009.7 - 0.0 - - - - - - -
27/05:00am 18.2 ENE 21 23 1009.5 - 0.0 - - - - - - -
27/04:30am 18.8 ENE 22 25 1009.5 - 0.0 - - - - - - -
27/04:00am 19.1 ENE 22 26 1009.4 - 0.0 - - - - - - -
27/03:30am 19.6 ENE 23 25 1009.2 - 0.0 - - - - - - -
27/03:00am 19.6 ENE 20 23 1009.4 - 0.0 - - - - - - -
27/02:30am 20.1 ENE 19 22 1009.3 - 0.0 - - - - - - -
27/02:00am 20.7 E 19 22 1009.4 - 0.0 - - - - - - -
27/01:30am 20.7 E 19 21 1009.6 - 0.0 - - - - - - -
27/01:00am 20.9 E 18 20 1009.9 - 0.0 - - - - - - -
27/12:30am 21.1 E 15 17 1010.1 - 0.0 - - - - - - -
27/12:00am 20.8 E 15 17 1010.2 - 0.0 - - - - - - -
 
Date/Time
WST
Temp

°C
Wind Pressure Rain
since 9am
mm
Weather Cloud Vis
km
Sea
Height
m
Swell
Dir
 
Speed
knots
Gust
knots
hPa Trend Height
m
Period
s
Dir
26/11:30pm 20.6 ESE 18 20 1010.4 - 0.0 - - - - - - -
26/11:00pm 20.7 ESE 19 21 1010.6 - 0.0 - - - - - - -
26/10:30pm 20.4 ESE 18 21 1010.8 - 0.0 - - - - - - -
26/10:00pm 20.1 ESE 16 21 1011.2 - 0.0 - - - - - - -
26/09:30pm 20.2 ESE 15 19 1011.6 - 0.0 - - - - - - -
26/09:00pm 20.3 SE 15 19 1011.7 - 0.0 - - - - - - -
26/08:30pm 20.4 ESE 14 19 1011.5 - 0.0 - - - - - - -
26/08:00pm 20.2 SE 17 23 1011.5 - 0.0 - - - - - - -
26/07:30pm 20.2 SE 19 24 1011.6 - 0.0 - - - - - - -
26/07:00pm 20.4 SE 18 23 1011.6 - 0.0 - - - - - - -
26/06:30pm 20.5 SE 19 26 1011.5 - 0.0 - - - - - - -
26/06:00pm 20.7 SE 19 25 1011.6 - 0.0 - - - - - - -
26/05:30pm 21.0 SE 20 26 1011.7 - 0.0 - - - - - - -
26/05:00pm 21.3 SE 20 26 1011.8 - 0.0 - - - - - - -
26/04:30pm 21.5 SE 21 28 1012.2 - 0.0 - - - - - - -
26/04:00pm 21.6 SE 20 29 1012.4 - 0.0 - - - - - - -
26/03:30pm 22.0 SE 21 28 1012.5 - 0.0 - - - - - - -
26/03:00pm 22.3 SE 23 27 1012.7 - 0.0 - - - - - - -
26/02:30pm 22.3 SE 24 30 1013.1 - 0.0 - - - - - - -
26/02:00pm 22.7 SE 22 28 1013.4 - 0.0 - - - - - - -
26/01:30pm 22.2 SE 22 28 1013.7 - 0.0 - - - - - - -
26/01:00pm 22.3 SE 21 27 1014.0 - 0.0 - - - - - - -
26/12:30pm 22.4 SE 21 27 1014.6 - 0.0 - - - - - - -
26/12:00pm 21.7 SE 20 25 1015.0 - 0.0 - - - - - - -
26/11:30am 21.7 SE 20 24 1015.5 - 0.0 - - - - - - -
26/11:00am 20.8 SE 20 25 1015.9 - 0.0 - - - - - - -
26/10:30am 19.6 ESE 19 24 1016.2 - 0.0 - - - - - - -
26/10:00am 19.5 ESE 19 23 1016.7 - 0.0 - - - - - - -
26/09:30am 19.0 ESE 20 24 1017.0 - 0.0 - - - - - - -
26/09:00am 17.9 ESE 22 28 1017.4 - 0.0 - - - - - - -
26/08:30am 17.7 E 24 30 1017.7 - 0.0 - - - - - - -

Other Formats:

Comma delimited format used in spreadsheet applications
http://www.bom.gov.au/fwo/IDW60701/IDW60701.94601.axf

JavaScript Object Notation format (JSON) in row-major order
http://www.bom.gov.au/fwo/IDW60701/IDW60701.94601.json